createdAt,value
2017-10-04T00:00:52.898Z,12.24
2017-10-04T00:01:53.608Z,12.24
2017-10-04T00:02:54.331Z,12.21
2017-10-04T00:03:55.043Z,12.28
2017-10-04T00:04:55.755Z,12.22
2017-10-04T00:05:56.466Z,12.18
2017-10-04T00:06:57.182Z,12.21
2017-10-04T00:07:57.887Z,12.20
2017-10-04T00:08:58.608Z,12.21
2017-10-04T00:09:59.319Z,12.17
2017-10-04T00:11:00.029Z,12.18
2017-10-04T00:12:00.740Z,12.13
2017-10-04T00:13:01.448Z,12.22
2017-10-04T00:14:02.169Z,12.17
2017-10-04T00:15:02.881Z,12.21
2017-10-04T00:16:03.590Z,12.22
2017-10-04T00:17:04.321Z,12.24
2017-10-04T00:18:05.024Z,12.25
2017-10-04T00:19:05.733Z,12.22
2017-10-04T00:20:06.442Z,12.20
2017-10-04T00:21:07.152Z,12.24
2017-10-04T00:22:07.872Z,12.24
2017-10-04T00:23:08.581Z,12.22
2017-10-04T00:24:09.292Z,12.20
2017-10-04T00:25:10.018Z,12.18
2017-10-04T00:26:10.725Z,12.22
2017-10-04T00:27:11.435Z,12.21
2017-10-04T00:28:12.146Z,12.25
2017-10-04T00:29:12.856Z,12.17
2017-10-04T00:30:13.567Z,12.15
2017-10-04T00:31:14.297Z,12.22
2017-10-04T00:32:15.009Z,12.21
2017-10-04T00:33:15.732Z,12.21
2017-10-04T00:34:16.440Z,12.22
2017-10-04T00:35:17.164Z,12.15
2017-10-04T00:36:17.874Z,12.21
2017-10-04T00:37:18.585Z,12.22
2017-10-04T00:38:19.294Z,12.29
2017-10-04T00:39:20.006Z,12.25
2017-10-04T00:40:20.715Z,12.20
2017-10-04T00:41:21.425Z,12.21
2017-10-04T00:42:22.132Z,12.20
2017-10-04T00:43:22.852Z,12.22
2017-10-04T00:44:23.562Z,12.17
2017-10-04T00:45:24.286Z,12.20
2017-10-04T00:46:24.995Z,12.21
2017-10-04T00:47:25.705Z,12.24
2017-10-04T00:48:26.414Z,12.24
2017-10-04T00:49:27.123Z,12.24
2017-10-04T00:50:27.831Z,12.18
2017-10-04T00:51:28.543Z,12.22
2017-10-04T00:52:29.250Z,12.18
2017-10-04T00:53:29.959Z,12.18
2017-10-04T00:54:30.669Z,12.17
2017-10-04T00:55:31.381Z,12.22
2017-10-04T00:56:32.104Z,12.20
2017-10-04T00:57:32.826Z,12.18
2017-10-04T00:58:33.536Z,12.25
2017-10-04T00:59:34.247Z,12.24
2017-10-04T01:00:34.958Z,12.18
2017-10-04T01:01:35.670Z,12.25
2017-10-04T01:02:36.381Z,12.20
2017-10-04T01:03:37.092Z,12.20
2017-10-04T01:04:37.814Z,12.15
2017-10-04T01:05:38.525Z,12.18
2017-10-04T01:06:39.237Z,12.18
2017-10-04T01:07:39.948Z,12.21
2017-10-04T01:08:40.657Z,12.18
2017-10-04T01:09:41.367Z,12.18
2017-10-04T01:10:42.077Z,12.18
2017-10-04T01:11:42.789Z,12.13
2017-10-04T01:12:43.510Z,12.24
2017-10-04T01:13:44.221Z,12.22
2017-10-04T01:14:44.930Z,12.24
2017-10-04T01:15:45.644Z,12.21
2017-10-04T01:16:46.362Z,12.21
2017-10-04T01:17:47.072Z,12.22
2017-10-04T01:18:47.781Z,12.25
2017-10-04T01:19:48.490Z,12.22
2017-10-04T01:20:49.198Z,12.21
2017-10-04T01:21:49.907Z,12.20
2017-10-04T01:22:50.616Z,12.10
2017-10-04T01:23:51.325Z,12.27
2017-10-04T01:24:52.049Z,12.18
2017-10-04T01:25:52.759Z,12.20
2017-10-04T01:26:53.471Z,12.17
2017-10-04T01:27:54.182Z,12.27
2017-10-04T01:28:54.889Z,12.17
2017-10-04T01:29:55.598Z,12.13
2017-10-04T01:30:56.309Z,12.17
2017-10-04T01:31:57.017Z,12.20
2017-10-04T01:32:57.726Z,12.15
2017-10-04T01:33:58.437Z,12.21
2017-10-04T01:34:59.145Z,12.17
2017-10-04T01:35:59.867Z,12.15
2017-10-04T01:37:00.575Z,12.15
2017-10-04T01:38:01.289Z,12.10
2017-10-04T01:39:01.995Z,12.15
2017-10-04T01:40:02.706Z,12.18
2017-10-04T01:41:03.420Z,12.17
2017-10-04T01:42:04.141Z,12.22
2017-10-04T01:43:04.864Z,12.17
2017-10-04T01:44:05.571Z,12.24
2017-10-04T01:45:06.295Z,12.12
2017-10-04T01:46:07.002Z,12.18
2017-10-04T01:47:07.716Z,12.13
2017-10-04T01:48:08.436Z,12.15
2017-10-04T01:49:09.144Z,12.15
2017-10-04T01:50:09.869Z,12.22
2017-10-04T01:51:10.579Z,12.13
2017-10-04T01:52:11.301Z,12.12
2017-10-04T01:53:12.010Z,12.21
2017-10-04T01:54:12.721Z,12.15
2017-10-04T01:55:13.431Z,12.15
2017-10-04T01:56:14.142Z,12.18
2017-10-04T01:57:14.855Z,12.13
2017-10-04T01:58:15.578Z,12.17
2017-10-04T01:59:16.282Z,12.20
2017-10-04T02:00:16.994Z,12.20
2017-10-04T02:01:17.716Z,12.17
2017-10-04T02:02:18.425Z,12.15
2017-10-04T02:03:19.135Z,12.13
2017-10-04T02:04:19.844Z,12.12
2017-10-04T02:05:20.553Z,12.24
2017-10-04T02:06:21.261Z,12.13
2017-10-04T02:07:21.972Z,12.18
2017-10-04T02:08:22.685Z,12.18
2017-10-04T02:09:23.403Z,12.21
2017-10-04T02:10:24.114Z,12.20
2017-10-04T02:11:24.824Z,12.06
2017-10-04T02:12:25.536Z,12.13
2017-10-04T02:13:26.260Z,12.09
2017-10-04T02:14:26.972Z,12.10
2017-10-04T02:15:27.682Z,12.06
2017-10-04T02:16:28.391Z,12.09
2017-10-04T02:17:29.101Z,12.09
2017-10-04T02:18:29.811Z,12.10
2017-10-04T02:19:30.522Z,12.04
2017-10-04T02:20:31.233Z,12.15
2017-10-04T02:21:31.954Z,12.06
2017-10-04T02:22:32.665Z,12.06
2017-10-04T02:23:33.377Z,12.04
2017-10-04T02:24:34.086Z,12.12
2017-10-04T02:25:34.796Z,11.99
2017-10-04T02:26:35.519Z,12.07
2017-10-04T02:27:36.230Z,11.99
2017-10-04T02:28:36.952Z,12.02
2017-10-04T02:29:37.673Z,12.03
2017-10-04T02:30:38.385Z,11.94
2017-10-04T02:31:39.096Z,12.00
2017-10-04T02:32:39.805Z,12.00
2017-10-04T02:33:40.517Z,12.03
2017-10-04T02:34:41.226Z,11.97
2017-10-04T02:35:41.936Z,12.02
2017-10-04T02:36:42.646Z,12.00
2017-10-04T02:37:43.356Z,11.95
2017-10-04T02:38:44.066Z,11.97
2017-10-04T02:39:44.777Z,11.91
2017-10-04T02:40:45.488Z,12.04
2017-10-04T02:41:46.196Z,11.95
2017-10-04T02:42:46.920Z,11.99
2017-10-04T02:43:47.629Z,11.91
2017-10-04T02:44:48.338Z,12.00
2017-10-04T02:45:49.049Z,12.00
2017-10-04T02:46:49.771Z,11.99
2017-10-04T02:47:50.481Z,11.97
2017-10-04T02:48:51.190Z,11.97
2017-10-04T02:49:51.900Z,12.00
2017-10-04T02:50:52.609Z,11.99
2017-10-04T02:51:53.320Z,11.97
2017-10-04T02:52:54.030Z,11.99
2017-10-04T02:53:54.739Z,11.95
2017-10-04T02:54:55.455Z,11.99
2017-10-04T02:55:56.176Z,12.02
2017-10-04T02:56:56.887Z,12.02
2017-10-04T02:57:57.599Z,12.02
2017-10-04T02:58:58.310Z,12.00
2017-10-04T02:59:59.021Z,11.90
2017-10-04T03:00:59.730Z,11.95
2017-10-04T03:02:00.439Z,11.99
2017-10-04T03:03:01.150Z,12.03
2017-10-04T03:04:01.859Z,11.99
2017-10-04T03:05:02.580Z,12.00
2017-10-04T03:06:03.289Z,12.00
2017-10-04T03:07:04.012Z,12.03
2017-10-04T03:08:04.721Z,12.00
2017-10-04T03:09:05.445Z,12.00
2017-10-04T03:10:06.157Z,11.95
2017-10-04T03:11:06.867Z,12.03
2017-10-04T03:12:07.576Z,11.94
2017-10-04T03:13:08.286Z,11.88
2017-10-04T03:14:08.994Z,12.02
2017-10-04T03:15:09.717Z,11.95
2017-10-04T03:16:10.439Z,12.00
2017-10-04T03:17:11.148Z,12.03
2017-10-04T03:18:11.858Z,12.03
2017-10-04T03:19:12.583Z,12.02
2017-10-04T03:20:13.305Z,12.06
2017-10-04T03:21:14.019Z,11.99
2017-10-04T03:22:14.727Z,12.00
2017-10-04T03:23:15.437Z,11.94
2017-10-04T03:24:16.147Z,12.04
2017-10-04T03:25:16.856Z,12.02
2017-10-04T03:26:17.565Z,11.95
2017-10-04T03:27:18.290Z,11.90
2017-10-04T03:28:19.001Z,11.97
2017-10-04T03:29:19.711Z,11.95
2017-10-04T03:30:20.421Z,11.99
2017-10-04T03:31:21.133Z,11.97
2017-10-04T03:32:21.844Z,11.99
2017-10-04T03:33:22.550Z,12.04
2017-10-04T03:34:23.272Z,12.00
2017-10-04T03:35:23.982Z,12.04
2017-10-04T03:36:24.692Z,11.97
2017-10-04T03:37:25.401Z,12.03
2017-10-04T03:38:26.124Z,12.00
2017-10-04T03:39:26.833Z,11.99
2017-10-04T03:40:27.544Z,12.02
2017-10-04T03:42:29.141Z,11.97
2017-10-04T03:43:29.873Z,11.97
2017-10-04T03:44:30.578Z,11.91
2017-10-04T03:45:31.296Z,11.91
2017-10-04T03:46:32.021Z,11.91
2017-10-04T03:47:32.997Z,12.02
2017-10-04T03:48:33.722Z,11.90
2017-10-04T03:49:34.433Z,11.90
2017-10-04T03:50:35.143Z,11.90
2017-10-04T03:51:35.871Z,11.97
2017-10-04T03:52:36.594Z,11.95
2017-10-04T03:53:37.306Z,11.97
2017-10-04T03:54:38.019Z,11.94
2017-10-04T03:55:38.729Z,11.91
2017-10-04T03:56:39.453Z,11.84
2017-10-04T03:57:40.167Z,11.95
2017-10-04T03:58:40.878Z,11.94
2017-10-04T03:59:41.603Z,11.91
2017-10-04T04:00:42.325Z,11.94
2017-10-04T04:01:43.036Z,11.94
2017-10-04T04:02:43.747Z,12.03
2017-10-04T04:03:44.461Z,11.88
2017-10-04T04:04:45.186Z,11.84
2017-10-04T04:05:45.896Z,11.90
2017-10-04T04:06:46.621Z,11.87
2017-10-04T04:07:47.332Z,11.86
2017-10-04T04:08:48.043Z,11.86
2017-10-04T04:09:48.752Z,11.87
2017-10-04T04:10:49.465Z,11.95
2017-10-04T04:11:50.190Z,11.91
2017-10-04T04:12:50.900Z,11.88
2017-10-04T04:13:51.609Z,11.81
2017-10-04T04:14:52.321Z,11.87
2017-10-04T04:15:53.031Z,11.86
2017-10-04T04:16:53.741Z,11.88
2017-10-04T04:17:54.465Z,11.77
2017-10-04T04:18:55.177Z,11.81
2017-10-04T04:19:55.902Z,11.70
2017-10-04T04:20:56.611Z,11.83
2017-10-04T04:21:57.324Z,11.78
2017-10-04T04:22:58.032Z,11.80
2017-10-04T04:23:58.743Z,11.78
2017-10-04T04:24:59.455Z,11.70
2017-10-04T04:26:00.165Z,11.63
2017-10-04T04:27:00.887Z,11.75
2017-10-04T04:28:01.588Z,11.73
2017-10-04T04:29:02.300Z,11.75
2017-10-04T04:30:03.058Z,11.77
2017-10-04T04:31:03.769Z,11.70
2017-10-04T04:32:04.494Z,11.70
2017-10-04T04:33:05.202Z,11.68
2017-10-04T04:34:05.912Z,11.73
2017-10-04T04:35:06.641Z,11.70
2017-10-04T04:36:07.364Z,11.70
2017-10-04T04:37:08.085Z,11.73
2017-10-04T04:38:08.795Z,11.70
2017-10-04T04:39:09.518Z,11.73
2017-10-04T04:40:10.226Z,11.70
2017-10-04T04:41:10.937Z,11.63
2017-10-04T04:42:11.646Z,11.68
2017-10-04T04:43:12.373Z,11.65
2017-10-04T04:44:13.094Z,11.62
2017-10-04T04:45:13.820Z,11.66
2017-10-04T04:46:14.530Z,11.62
2017-10-04T04:47:15.240Z,11.59
2017-10-04T04:48:15.951Z,11.66
2017-10-04T04:49:16.663Z,11.52
2017-10-04T04:50:17.375Z,11.59
2017-10-04T04:51:18.088Z,11.55
2017-10-04T04:52:18.798Z,11.55
2017-10-04T04:53:19.509Z,11.52
2017-10-04T04:54:20.232Z,11.60
2017-10-04T04:55:20.957Z,11.62
2017-10-04T04:56:21.669Z,11.60
2017-10-04T04:57:22.392Z,11.57
2017-10-04T04:58:23.117Z,11.59
2017-10-04T04:59:23.824Z,11.60
2017-10-04T05:00:24.533Z,11.60
2017-10-04T05:01:25.243Z,11.52
2017-10-04T05:02:25.961Z,11.57
2017-10-04T05:03:26.680Z,11.54
2017-10-04T05:04:27.392Z,11.54
2017-10-04T05:05:28.101Z,11.60
2017-10-04T05:06:28.810Z,11.57
2017-10-04T05:07:29.521Z,11.54
2017-10-04T05:08:30.228Z,11.51
2017-10-04T05:09:30.952Z,11.50
2017-10-04T05:10:31.665Z,11.50
2017-10-04T05:11:32.372Z,11.50
2017-10-04T05:12:33.083Z,11.50
2017-10-04T05:13:33.798Z,11.50
2017-10-04T05:14:34.503Z,11.51
2017-10-04T05:15:35.213Z,11.50
2017-10-04T05:16:35.939Z,11.44
2017-10-04T05:17:36.652Z,11.40
2017-10-04T05:18:37.364Z,11.51
2017-10-04T05:19:38.076Z,11.47
2017-10-04T05:20:38.800Z,11.43
2017-10-04T05:21:39.522Z,11.41
2017-10-04T05:22:40.239Z,11.44
2017-10-04T05:23:40.950Z,11.43
2017-10-04T05:24:41.662Z,11.41
2017-10-04T05:25:42.375Z,11.40
2017-10-04T05:26:43.089Z,11.45
2017-10-04T05:27:43.802Z,11.47
2017-10-04T05:28:44.529Z,11.37
2017-10-04T05:29:45.241Z,11.45
2017-10-04T05:30:45.951Z,11.47
2017-10-04T05:31:46.676Z,11.43
2017-10-04T05:32:47.402Z,11.45
2017-10-04T05:33:48.129Z,11.44
2017-10-04T05:34:48.840Z,11.41
2017-10-04T05:35:49.551Z,11.69
2017-10-04T05:36:50.263Z,12.24
2017-10-04T05:37:50.976Z,12.13
2017-10-04T05:38:51.688Z,12.17
2017-10-04T05:39:52.401Z,12.27
2017-10-04T05:40:53.115Z,12.47
2017-10-04T05:41:53.830Z,12.20
2017-10-04T05:42:54.544Z,12.15
2017-10-04T05:43:55.259Z,11.97
2017-10-04T05:44:55.972Z,11.99
2017-10-04T05:45:56.684Z,11.90
2017-10-04T05:46:57.411Z,11.78
2017-10-04T05:47:58.125Z,11.78
2017-10-04T05:48:58.840Z,11.73
2017-10-04T05:49:59.553Z,11.59
2017-10-04T05:51:00.279Z,11.66
2017-10-04T05:52:00.994Z,11.52
2017-10-04T05:53:01.708Z,11.51
2017-10-04T05:54:02.438Z,11.70
2017-10-04T05:55:03.153Z,11.62
2017-10-04T05:56:03.867Z,11.59
2017-10-04T05:57:04.583Z,11.57
2017-10-04T05:58:05.295Z,11.57
2017-10-04T05:59:06.024Z,11.52
2017-10-04T06:00:06.736Z,11.48
2017-10-04T06:01:07.452Z,11.50
2017-10-04T06:02:08.166Z,11.48
2017-10-04T06:03:08.881Z,11.44
2017-10-04T06:04:09.599Z,11.40
2017-10-04T06:05:10.314Z,11.44
2017-10-04T06:06:11.042Z,11.41
2017-10-04T06:07:11.758Z,11.47
2017-10-04T06:08:12.486Z,11.44
2017-10-04T06:09:13.201Z,11.45
2017-10-04T06:10:13.918Z,11.37
2017-10-04T06:11:14.633Z,11.44
2017-10-04T06:12:15.350Z,11.44
2017-10-04T06:13:16.079Z,11.41
2017-10-04T06:14:16.810Z,11.37
2017-10-04T06:15:17.527Z,11.43
2017-10-04T06:16:18.243Z,11.44
2017-10-04T06:17:18.958Z,11.44
2017-10-04T06:18:19.686Z,11.48
2017-10-04T06:19:20.415Z,11.47
2017-10-04T06:20:21.144Z,11.51
2017-10-04T06:21:21.861Z,11.55
2017-10-04T06:22:22.577Z,11.55
2017-10-04T06:23:23.306Z,11.57
2017-10-04T06:24:24.038Z,11.54
2017-10-04T06:25:24.750Z,11.63
2017-10-04T06:26:25.467Z,11.78
2017-10-04T06:27:26.195Z,11.77
2017-10-04T06:28:26.912Z,11.87
2017-10-04T06:29:27.630Z,11.97
2017-10-04T06:30:28.344Z,11.91
2017-10-04T06:31:29.063Z,12.21
2017-10-04T06:32:29.782Z,12.27
2017-10-04T06:33:30.513Z,12.18
2017-10-04T06:34:31.246Z,12.25
2017-10-04T06:35:31.961Z,12.15
2017-10-04T06:36:32.680Z,12.20
2017-10-04T06:37:33.397Z,12.10
2017-10-04T06:38:34.113Z,12.12
2017-10-04T06:39:34.832Z,12.10
2017-10-04T06:40:35.565Z,12.13
2017-10-04T06:41:36.282Z,12.21
2017-10-04T06:42:36.998Z,12.09
2017-10-04T06:43:37.715Z,12.20
2017-10-04T06:44:38.431Z,12.13
2017-10-04T06:45:39.148Z,12.15
2017-10-04T06:46:39.877Z,12.24
2017-10-04T06:47:40.585Z,12.18
2017-10-04T06:48:41.313Z,12.18
2017-10-04T06:49:42.030Z,12.13
2017-10-04T06:50:42.749Z,12.27
2017-10-04T06:51:43.465Z,12.24
2017-10-04T06:52:44.183Z,12.43
2017-10-04T06:53:44.915Z,12.54
2017-10-04T06:54:45.635Z,12.36
2017-10-04T06:55:46.351Z,12.47
2017-10-04T06:56:47.082Z,12.45
2017-10-04T06:57:47.801Z,12.64
2017-10-04T06:58:48.521Z,12.61
2017-10-04T06:59:49.239Z,12.60
2017-10-04T07:00:49.957Z,12.57
2017-10-04T07:01:50.690Z,12.61
2017-10-04T07:02:51.408Z,12.49
2017-10-04T07:03:52.126Z,12.53
2017-10-04T07:04:52.844Z,12.46
2017-10-04T07:05:53.562Z,12.47
2017-10-04T07:06:54.280Z,12.50
2017-10-04T07:07:55.001Z,12.49
2017-10-04T07:08:55.719Z,12.47
2017-10-04T07:09:56.437Z,12.32
2017-10-04T07:10:57.168Z,12.43
2017-10-04T07:11:57.889Z,12.40
2017-10-04T07:12:58.604Z,12.39
2017-10-04T07:13:59.323Z,12.40
2017-10-04T07:15:00.041Z,12.42
2017-10-04T07:16:00.759Z,12.39
2017-10-04T07:17:01.475Z,12.32
2017-10-04T07:18:02.195Z,12.36
2017-10-04T07:19:02.911Z,12.40
2017-10-04T07:20:03.627Z,12.28
2017-10-04T07:21:04.362Z,12.27
2017-10-04T07:22:05.077Z,12.22
2017-10-04T07:23:05.796Z,12.28
2017-10-04T07:24:06.525Z,12.28
2017-10-04T07:25:07.258Z,12.25
2017-10-04T07:26:07.978Z,12.35
2017-10-04T07:27:08.693Z,12.40
2017-10-04T07:28:09.426Z,12.37
2017-10-04T07:29:10.143Z,12.37
2017-10-04T07:30:10.860Z,12.39
2017-10-04T07:31:11.577Z,12.46
2017-10-04T07:32:12.296Z,12.45
2017-10-04T07:33:13.029Z,12.42
2017-10-04T07:34:13.746Z,12.46
2017-10-04T07:35:14.463Z,12.60
2017-10-04T07:36:15.179Z,12.58
2017-10-04T07:37:15.897Z,12.57
2017-10-04T07:38:16.617Z,12.62
2017-10-04T07:39:17.335Z,12.55
2017-10-04T07:40:18.052Z,12.72
2017-10-04T07:41:18.771Z,12.67
2017-10-04T07:42:19.488Z,12.60
2017-10-04T07:43:20.205Z,12.68
2017-10-04T07:44:20.925Z,12.57
2017-10-04T07:45:21.658Z,12.47
2017-10-04T07:46:22.376Z,12.53
2017-10-04T07:47:23.107Z,12.61
2017-10-04T07:48:23.824Z,12.60
2017-10-04T07:49:24.542Z,12.67
2017-10-04T07:50:25.260Z,12.65
2017-10-04T07:51:25.981Z,12.60
2017-10-04T07:52:26.699Z,12.62
2017-10-04T07:53:27.414Z,12.70
2017-10-04T07:54:28.145Z,12.62
2017-10-04T07:55:28.863Z,12.68
2017-10-04T07:56:29.581Z,12.72
2017-10-04T07:57:30.311Z,12.73
2017-10-04T07:58:31.028Z,12.75
2017-10-04T07:59:31.745Z,12.75
2017-10-04T08:00:32.463Z,12.76
2017-10-04T08:01:33.194Z,12.78
2017-10-04T08:02:33.912Z,12.78
2017-10-04T08:03:34.627Z,12.76
2017-10-04T08:04:35.347Z,12.72
2017-10-04T08:05:36.063Z,12.85
2017-10-04T08:06:36.795Z,12.75
2017-10-04T08:07:37.526Z,12.82
2017-10-04T08:08:38.243Z,12.83
2017-10-04T08:09:38.960Z,12.85
2017-10-04T08:10:39.677Z,12.94
2017-10-04T08:11:40.393Z,12.90
2017-10-04T08:12:41.125Z,12.87
2017-10-04T08:13:41.841Z,12.87
2017-10-04T08:14:42.559Z,12.83
2017-10-04T08:15:43.275Z,12.85
2017-10-04T08:16:44.008Z,12.86
2017-10-04T08:17:44.726Z,12.79
2017-10-04T08:18:45.444Z,12.90
2017-10-04T08:19:46.159Z,12.98
2017-10-04T08:20:46.892Z,12.82
2017-10-04T08:21:47.619Z,12.95
2017-10-04T08:22:48.357Z,12.94
2017-10-04T08:23:49.060Z,12.94
2017-10-04T08:24:49.774Z,12.87
2017-10-04T08:25:50.493Z,12.87
2017-10-04T08:26:51.211Z,12.87
2017-10-04T08:27:51.928Z,12.86
2017-10-04T08:28:52.660Z,12.94
2017-10-04T08:29:53.378Z,12.90
2017-10-04T08:30:54.096Z,13.00
2017-10-04T08:31:54.814Z,12.90
2017-10-04T08:32:55.529Z,12.90
2017-10-04T08:33:56.246Z,12.90
2017-10-04T08:34:56.960Z,13.03
2017-10-04T08:35:57.679Z,12.82
2017-10-04T08:36:58.398Z,12.98
2017-10-04T08:37:59.130Z,13.12
2017-10-04T08:38:59.865Z,13.31
2017-10-04T08:40:00.582Z,13.35
2017-10-04T08:41:01.302Z,13.37
2017-10-04T08:42:02.021Z,13.57
2017-10-04T08:43:02.742Z,13.79
2017-10-04T08:44:03.465Z,13.95
2017-10-04T08:45:04.185Z,14.23
2017-10-04T08:46:04.920Z,14.20
2017-10-04T08:47:05.643Z,14.03
2017-10-04T08:48:06.365Z,13.95
2017-10-04T08:49:07.083Z,13.90
2017-10-04T08:50:07.802Z,13.75
2017-10-04T08:51:08.536Z,13.70
2017-10-04T08:52:09.258Z,13.75
2017-10-04T08:53:09.978Z,13.96
2017-10-04T08:54:10.698Z,13.89
2017-10-04T08:55:11.423Z,13.87
2017-10-04T08:56:12.161Z,13.79
2017-10-04T08:57:12.873Z,13.85
2017-10-04T08:58:13.592Z,13.89
2017-10-04T08:59:14.312Z,13.86
2017-10-04T09:00:15.032Z,13.79
2017-10-04T09:01:15.754Z,13.99
2017-10-04T09:02:16.476Z,14.05
2017-10-04T09:03:17.209Z,14.15
2017-10-04T09:04:17.926Z,14.00
2017-10-04T09:05:18.648Z,13.81
2017-10-04T09:06:19.368Z,13.87
2017-10-04T09:07:20.101Z,13.85
2017-10-04T09:08:20.820Z,13.75
2017-10-04T09:09:21.545Z,13.79
2017-10-04T09:10:22.262Z,13.62
2017-10-04T09:11:22.979Z,13.63
2017-10-04T09:12:23.698Z,13.70
2017-10-04T09:13:24.417Z,13.71
2017-10-04T09:14:25.150Z,13.71
2017-10-04T09:15:25.872Z,13.74
2017-10-04T09:16:26.588Z,13.79
2017-10-04T09:17:27.307Z,13.70
2017-10-04T09:18:28.026Z,13.47
2017-10-04T09:19:28.747Z,13.46
2017-10-04T09:20:29.477Z,13.44
2017-10-04T09:21:30.205Z,13.44
2017-10-04T09:22:30.920Z,13.33
2017-10-04T09:23:31.638Z,13.33
2017-10-04T09:24:32.358Z,13.27
2017-10-04T09:25:33.081Z,13.31
2017-10-04T09:26:33.793Z,13.25
2017-10-04T09:27:34.515Z,13.20
2017-10-04T09:28:35.227Z,13.30
2017-10-04T09:29:35.958Z,13.28
2017-10-04T09:30:36.675Z,13.22
2017-10-04T09:31:37.392Z,13.38
2017-10-04T09:32:38.125Z,13.19
2017-10-04T09:33:38.840Z,13.22
2017-10-04T09:34:39.557Z,13.31
2017-10-04T09:35:40.275Z,13.35
2017-10-04T09:36:40.991Z,13.38
2017-10-04T09:37:41.724Z,13.37
2017-10-04T09:38:42.454Z,13.39
2017-10-04T09:39:43.171Z,13.46
2017-10-04T09:40:43.889Z,13.44
2017-10-04T09:41:44.607Z,13.50
2017-10-04T09:42:45.326Z,13.44
2017-10-04T09:43:46.045Z,13.50
2017-10-04T09:44:46.776Z,13.60
2017-10-04T09:45:47.494Z,13.60
2017-10-04T09:46:48.214Z,13.60
2017-10-04T09:47:48.946Z,13.60
2017-10-04T09:48:49.680Z,13.72
2017-10-04T09:49:50.399Z,13.83
2017-10-04T09:50:51.117Z,13.87
2017-10-04T09:51:51.837Z,13.90
2017-10-04T09:52:52.556Z,13.95
2017-10-04T09:53:53.274Z,13.92
2017-10-04T09:54:53.997Z,14.04
2017-10-04T09:55:54.728Z,13.97
2017-10-04T09:56:55.446Z,13.95
2017-10-04T09:57:56.162Z,13.89
2017-10-04T09:58:56.884Z,13.99
2017-10-04T09:59:57.603Z,13.92
2017-10-04T10:00:58.321Z,13.85
2017-10-04T10:01:59.039Z,13.85
2017-10-04T10:02:59.759Z,13.95
2017-10-04T10:04:00.476Z,13.90
2017-10-04T10:05:01.197Z,13.86
2017-10-04T10:06:01.916Z,13.90
2017-10-04T10:07:02.634Z,13.86
2017-10-04T10:08:03.353Z,13.87
2017-10-04T10:09:04.071Z,13.81
2017-10-04T10:10:04.789Z,13.83
2017-10-04T10:11:05.509Z,13.90
2017-10-04T10:12:06.228Z,13.77
2017-10-04T10:13:06.945Z,13.75
2017-10-04T10:14:07.674Z,13.74
2017-10-04T10:15:08.408Z,13.59
2017-10-04T10:16:09.126Z,13.65
2017-10-04T10:17:09.845Z,13.62
2017-10-04T10:18:10.562Z,13.57
2017-10-04T10:19:11.296Z,13.60
2017-10-04T10:20:12.025Z,13.57
2017-10-04T10:21:12.742Z,13.71
2017-10-04T10:22:13.477Z,13.62
2017-10-04T10:23:14.189Z,13.74
2017-10-04T10:24:14.908Z,13.83
2017-10-04T10:25:15.625Z,13.78
2017-10-04T10:26:16.343Z,13.87
2017-10-04T10:27:17.062Z,13.87
2017-10-04T10:28:17.782Z,13.77
2017-10-04T10:29:18.499Z,13.79
2017-10-04T10:30:19.217Z,13.77
2017-10-04T10:31:19.949Z,13.92
2017-10-04T10:32:20.669Z,13.99
2017-10-04T10:33:21.388Z,14.10
2017-10-04T10:34:22.128Z,14.11
2017-10-04T10:35:22.826Z,14.14
2017-10-04T10:36:23.546Z,14.15
2017-10-04T10:37:24.267Z,14.04
2017-10-04T10:38:24.986Z,14.08
2017-10-04T10:39:25.717Z,14.11
2017-10-04T10:40:26.436Z,14.04
2017-10-04T10:41:27.158Z,13.95
2017-10-04T10:42:27.875Z,13.85
2017-10-04T10:43:28.593Z,13.95
2017-10-04T10:44:29.311Z,14.00
2017-10-04T10:45:30.029Z,14.07
2017-10-04T10:46:30.746Z,14.00
2017-10-04T10:47:31.466Z,13.97
2017-10-04T10:48:32.185Z,13.96
2017-10-04T10:49:32.904Z,14.07
2017-10-04T10:50:33.623Z,14.11
2017-10-04T10:51:34.345Z,14.25
2017-10-04T10:52:35.071Z,14.29
2017-10-04T10:53:35.784Z,14.29
2017-10-04T10:54:36.505Z,14.41
2017-10-04T10:55:37.225Z,14.51
2017-10-04T10:56:37.943Z,14.65
2017-10-04T10:57:38.664Z,14.62
2017-10-04T10:58:39.384Z,14.72
2017-10-04T10:59:40.118Z,14.86
2017-10-04T11:00:40.840Z,15.03
2017-10-04T11:01:41.560Z,15.18
2017-10-04T11:02:42.278Z,14.96
2017-10-04T11:03:42.999Z,14.94
2017-10-04T11:04:43.720Z,14.81
2017-10-04T11:05:44.441Z,14.65
2017-10-04T11:06:45.160Z,14.45
2017-10-04T11:07:45.879Z,14.41
2017-10-04T11:08:46.600Z,14.40
2017-10-04T11:09:47.324Z,14.32
2017-10-04T11:10:48.055Z,14.37
2017-10-04T11:11:48.774Z,14.43
2017-10-04T11:12:49.494Z,14.44
2017-10-04T11:13:50.217Z,14.43
2017-10-04T11:14:50.939Z,14.51
2017-10-04T11:15:51.673Z,14.48
2017-10-04T11:16:52.394Z,14.51
2017-10-04T11:17:53.115Z,14.66
2017-10-04T11:18:53.839Z,14.94
2017-10-04T11:19:54.561Z,15.55
2017-10-04T11:20:55.284Z,15.54
2017-10-04T11:21:56.007Z,15.46
2017-10-04T11:22:56.746Z,15.37
2017-10-04T11:23:57.483Z,15.28
2017-10-04T11:24:58.205Z,14.92
2017-10-04T11:25:58.943Z,14.92
2017-10-04T11:26:59.680Z,14.97
2017-10-04T11:28:00.403Z,15.02
2017-10-04T11:29:01.139Z,14.94
2017-10-04T11:30:01.862Z,14.96
2017-10-04T11:31:02.582Z,15.00
2017-10-04T11:32:03.319Z,14.92
2017-10-04T11:33:04.042Z,14.99
2017-10-04T11:34:04.762Z,14.79
2017-10-04T11:35:05.496Z,14.70
2017-10-04T11:36:06.218Z,14.77
2017-10-04T11:37:06.953Z,14.68
2017-10-04T11:38:07.674Z,14.73
2017-10-04T11:39:08.395Z,14.55
2017-10-04T11:40:09.115Z,14.65
2017-10-04T11:41:09.837Z,14.58
2017-10-04T11:42:10.571Z,14.73
2017-10-04T11:43:11.289Z,14.63
2017-10-04T11:44:12.008Z,14.65
2017-10-04T11:45:12.740Z,14.73
2017-10-04T11:46:13.461Z,14.77
2017-10-04T11:47:14.182Z,14.79
2017-10-04T11:48:14.901Z,14.66
2017-10-04T11:49:15.620Z,14.68
2017-10-04T11:50:16.352Z,14.54
2017-10-04T11:51:17.087Z,14.59
2017-10-04T11:52:17.805Z,14.53
2017-10-04T11:53:18.541Z,14.68
2017-10-04T11:54:19.273Z,14.55
2017-10-04T11:55:19.992Z,14.60
2017-10-04T11:56:20.709Z,14.65
2017-10-04T11:57:21.428Z,14.79
2017-10-04T11:58:22.149Z,14.86
2017-10-04T11:59:22.877Z,14.65
2017-10-04T12:00:23.583Z,14.54
2017-10-04T12:01:24.301Z,14.53
2017-10-04T12:02:25.021Z,14.62
2017-10-04T12:03:25.752Z,14.60
2017-10-04T12:04:26.472Z,14.60
2017-10-04T12:05:27.190Z,14.58
2017-10-04T12:06:27.907Z,14.53
2017-10-04T12:07:28.625Z,14.53
2017-10-04T12:08:29.346Z,14.51
2017-10-04T12:09:30.077Z,14.51
2017-10-04T12:10:30.793Z,14.50
2017-10-04T12:11:31.512Z,14.47
2017-10-04T12:12:32.227Z,14.53
2017-10-04T12:13:32.946Z,14.51
2017-10-04T12:14:33.663Z,14.55
2017-10-04T12:15:34.395Z,14.51
2017-10-04T12:16:35.111Z,14.41
2017-10-04T12:17:35.828Z,14.41
2017-10-04T12:18:36.549Z,14.37
2017-10-04T12:19:37.266Z,14.40
2017-10-04T12:20:37.983Z,14.40
2017-10-04T12:21:38.699Z,14.40
2017-10-04T12:22:39.415Z,14.41
2017-10-04T12:23:40.150Z,14.37
2017-10-04T12:24:40.868Z,14.37
2017-10-04T12:25:41.585Z,14.41
2017-10-04T12:26:42.302Z,14.37
2017-10-04T12:27:43.017Z,14.43
2017-10-04T12:28:43.748Z,14.29
2017-10-04T12:29:44.481Z,14.43
2017-10-04T12:30:45.208Z,14.36
2017-10-04T12:31:45.925Z,14.35
2017-10-04T12:32:46.656Z,14.40
2017-10-04T12:33:47.374Z,14.33
2017-10-04T12:34:48.099Z,14.33
2017-10-04T12:35:48.825Z,14.35
2017-10-04T12:36:49.640Z,14.36
2017-10-04T12:37:50.372Z,14.29
2017-10-04T12:38:51.090Z,14.30
2017-10-04T12:39:51.813Z,14.36
2017-10-04T12:40:52.623Z,14.26
2017-10-04T12:41:53.355Z,14.32
2017-10-04T12:42:54.075Z,14.35
2017-10-04T12:43:54.791Z,14.33
2017-10-04T12:44:55.506Z,14.40
2017-10-04T12:45:56.233Z,14.37
2017-10-04T12:46:56.950Z,14.43
2017-10-04T12:47:57.681Z,14.43
2017-10-04T12:48:58.399Z,14.37
2017-10-04T12:49:59.118Z,14.40
2017-10-04T12:50:59.838Z,14.37
2017-10-04T12:52:00.555Z,14.50
2017-10-04T12:53:01.285Z,14.43
2017-10-04T12:54:02.001Z,14.51
2017-10-04T12:55:02.764Z,14.36
2017-10-04T12:56:03.479Z,14.41
2017-10-04T12:57:04.196Z,14.54
2017-10-04T12:58:04.914Z,14.48
2017-10-04T12:59:05.746Z,14.51
2017-10-04T13:00:06.463Z,14.53
2017-10-04T13:01:07.182Z,14.53
2017-10-04T13:02:07.934Z,14.44
2017-10-04T13:03:08.653Z,14.37